createdAt,value
2022-11-30T00:01:14.805Z,6.70
2022-11-30T00:03:41.759Z,6.80
2022-11-30T00:06:11.072Z,6.80
2022-11-30T00:08:38.065Z,6.70
2022-11-30T00:11:15.099Z,6.30
2022-11-30T00:13:42.181Z,6.40
2022-11-30T00:16:09.693Z,6.30
2022-11-30T00:18:37.518Z,6.20
2022-11-30T00:21:08.632Z,6.10
2022-11-30T00:23:37.442Z,6.10
2022-11-30T00:26:06.630Z,6.10
2022-11-30T00:28:35.104Z,6.10
2022-11-30T00:31:07.526Z,6.30
2022-11-30T00:33:36.380Z,6.30
2022-11-30T00:36:06.716Z,6.30
2022-11-30T00:38:34.240Z,6.20
2022-11-30T00:41:01.795Z,6.00
2022-11-30T00:43:30.323Z,6.20
2022-11-30T00:45:57.259Z,6.60
2022-11-30T00:48:24.152Z,6.80
2022-11-30T00:50:51.220Z,6.70
2022-11-30T00:53:19.147Z,6.70
2022-11-30T00:55:46.212Z,6.80
2022-11-30T00:58:13.347Z,6.90
2022-11-30T01:00:40.144Z,7.00
2022-11-30T01:03:06.958Z,6.80
2022-11-30T01:05:34.793Z,6.80
2022-11-30T01:08:05.735Z,6.80
2022-11-30T01:10:34.188Z,6.80
2022-11-30T01:13:01.257Z,6.80
2022-11-30T01:15:28.162Z,6.90
2022-11-30T01:17:54.934Z,6.70
2022-11-30T01:20:21.774Z,6.50
2022-11-30T01:22:48.562Z,6.30
2022-11-30T01:25:15.644Z,6.00
2022-11-30T01:27:42.364Z,5.90
2022-11-30T01:30:09.727Z,5.90
2022-11-30T01:32:36.483Z,6.10
2022-11-30T01:35:03.496Z,5.90
2022-11-30T01:37:30.394Z,5.90
2022-11-30T01:39:57.321Z,6.10
2022-11-30T01:42:25.345Z,5.90
2022-11-30T01:44:57.392Z,6.00
2022-11-30T01:47:41.052Z,6.10
2022-11-30T01:50:16.765Z,6.10
2022-11-30T01:52:47.104Z,6.30
2022-11-30T01:55:40.597Z,6.10
2022-11-30T01:58:11.609Z,5.90
2022-11-30T02:00:40.520Z,6.30
2022-11-30T02:03:13.514Z,6.20
2022-11-30T02:05:41.424Z,6.20
2022-11-30T02:08:10.923Z,6.40
2022-11-30T02:10:45.136Z,6.00
2022-11-30T02:13:33.598Z,6.00
2022-11-30T02:16:27.791Z,6.30
2022-11-30T02:19:06.618Z,6.50
2022-11-30T02:21:41.904Z,6.50
2022-11-30T02:24:08.595Z,6.30
2022-11-30T02:27:14.361Z,6.00
2022-11-30T02:29:47.000Z,6.20
2022-11-30T02:32:25.831Z,6.00
2022-11-30T02:34:55.096Z,6.20
2022-11-30T02:37:22.706Z,6.50
2022-11-30T02:39:49.427Z,6.80
2022-11-30T02:42:16.985Z,6.40
2022-11-30T02:44:47.758Z,6.50
2022-11-30T02:47:48.941Z,6.60
2022-11-30T02:50:21.167Z,6.30
2022-11-30T02:52:50.306Z,6.20
2022-11-30T02:55:19.163Z,6.00
2022-11-30T02:57:46.150Z,6.00
2022-11-30T03:00:16.120Z,6.40
2022-11-30T03:02:42.937Z,6.30
2022-11-30T03:05:09.912Z,6.30
2022-11-30T03:07:37.030Z,6.30
2022-11-30T03:10:05.737Z,6.40
2022-11-30T03:12:32.500Z,6.30
2022-11-30T03:14:59.205Z,6.50
2022-11-30T03:17:25.943Z,6.70
2022-11-30T03:19:52.674Z,6.70
2022-11-30T03:22:19.477Z,6.80
2022-11-30T03:24:46.468Z,7.10
2022-11-30T03:27:13.413Z,7.30
2022-11-30T03:29:40.332Z,7.50
2022-11-30T03:32:07.521Z,7.30
2022-11-30T03:34:34.304Z,6.60
2022-11-30T03:37:01.084Z,6.20
2022-11-30T03:39:27.991Z,6.00
2022-11-30T03:41:54.710Z,5.80
2022-11-30T03:44:21.477Z,5.90
2022-11-30T03:46:48.272Z,6.00
2022-11-30T03:49:15.075Z,6.30
2022-11-30T03:51:41.916Z,6.50
2022-11-30T03:54:08.677Z,6.40
2022-11-30T03:56:35.474Z,6.20
2022-11-30T03:59:02.227Z,6.20
2022-11-30T04:01:29.160Z,6.40
2022-11-30T04:03:55.976Z,6.40
2022-11-30T04:06:22.822Z,6.10
2022-11-30T04:08:49.880Z,6.40
2022-11-30T04:11:16.886Z,6.70
2022-11-30T04:13:43.684Z,6.70
2022-11-30T04:16:11.008Z,6.40
2022-11-30T04:18:38.843Z,6.80
2022-11-30T04:21:07.877Z,6.80
2022-11-30T04:23:37.156Z,6.90
2022-11-30T04:26:09.222Z,6.80
2022-11-30T04:28:36.045Z,6.90
2022-11-30T04:31:03.364Z,6.70
2022-11-30T04:33:30.540Z,6.90
2022-11-30T04:35:59.809Z,6.90
2022-11-30T04:38:28.070Z,7.10
2022-11-30T04:40:54.906Z,6.60
2022-11-30T04:43:22.239Z,6.30
2022-11-30T04:45:49.234Z,6.00
2022-11-30T04:48:17.603Z,5.80
2022-11-30T04:50:45.016Z,5.70
2022-11-30T04:53:12.447Z,6.00
2022-11-30T04:55:39.342Z,6.30
2022-11-30T04:58:06.807Z,6.00
2022-11-30T05:00:33.963Z,5.80
2022-11-30T05:03:00.714Z,5.90
2022-11-30T05:05:27.731Z,5.80
2022-11-30T05:07:59.502Z,5.70
2022-11-30T05:10:27.832Z,5.70
2022-11-30T05:12:54.973Z,5.90
2022-11-30T05:15:21.837Z,6.30
2022-11-30T05:17:48.584Z,6.80
2022-11-30T05:20:15.715Z,7.20
2022-11-30T05:22:42.528Z,7.30
2022-11-30T05:25:09.984Z,7.10
2022-11-30T05:27:37.251Z,6.80
2022-11-30T05:30:05.073Z,6.80
2022-11-30T05:32:31.859Z,6.60
2022-11-30T05:34:58.849Z,6.30
2022-11-30T05:37:25.951Z,5.90
2022-11-30T05:39:52.724Z,6.00
2022-11-30T05:42:19.551Z,6.40
2022-11-30T05:44:47.814Z,6.50
2022-11-30T05:47:16.555Z,6.20
2022-11-30T05:49:43.470Z,6.30
2022-11-30T05:52:10.498Z,6.50
2022-11-30T05:54:37.403Z,6.60
2022-11-30T05:57:05.390Z,7.00
2022-11-30T05:59:32.238Z,7.20
2022-11-30T06:01:59.230Z,7.20
2022-11-30T06:04:26.279Z,7.00
2022-11-30T06:06:55.626Z,6.90
2022-11-30T06:09:22.944Z,7.00
2022-11-30T06:11:49.745Z,7.10
2022-11-30T06:14:16.668Z,7.10
2022-11-30T06:16:43.584Z,6.90
2022-11-30T06:19:10.353Z,6.80
2022-11-30T06:21:37.071Z,6.70
2022-11-30T06:24:04.153Z,6.70
2022-11-30T06:26:30.888Z,6.40
2022-11-30T06:28:57.735Z,6.30
2022-11-30T06:31:24.506Z,6.40
2022-11-30T06:33:51.525Z,6.20
2022-11-30T06:36:22.994Z,6.20
2022-11-30T06:38:50.107Z,6.40
2022-11-30T06:41:17.237Z,6.70
2022-11-30T06:43:44.034Z,6.40
2022-11-30T06:46:11.311Z,6.40
2022-11-30T06:48:38.719Z,6.30
2022-11-30T06:51:06.983Z,6.20
2022-11-30T06:53:34.170Z,6.20
2022-11-30T06:56:10.424Z,6.30
2022-11-30T06:58:39.490Z,6.40
2022-11-30T07:01:07.865Z,6.80
2022-11-30T07:03:34.893Z,7.10
2022-11-30T07:06:06.732Z,6.70
2022-11-30T07:08:33.581Z,6.90
2022-11-30T07:11:00.783Z,7.10
2022-11-30T07:13:27.525Z,7.20
2022-11-30T07:15:54.339Z,7.10
2022-11-30T07:18:21.143Z,6.80
2022-11-30T07:20:47.867Z,6.70
2022-11-30T07:23:33.381Z,7.00
2022-11-30T07:26:08.209Z,6.90
2022-11-30T07:28:37.291Z,6.50
2022-11-30T07:31:16.390Z,6.70
2022-11-30T07:33:44.290Z,6.80
2022-11-30T07:36:11.676Z,6.90
2022-11-30T07:38:38.750Z,6.60
2022-11-30T07:41:05.731Z,6.20
2022-11-30T07:43:33.115Z,6.40
2022-11-30T07:46:00.554Z,6.50
2022-11-30T07:48:27.739Z,6.70
2022-11-30T07:50:55.403Z,6.70
2022-11-30T07:53:22.731Z,6.90
2022-11-30T07:55:55.492Z,6.80
2022-11-30T07:58:23.736Z,6.70
2022-11-30T08:00:50.573Z,6.90
2022-11-30T08:03:17.405Z,7.10
2022-11-30T08:05:44.133Z,7.10
2022-11-30T08:08:10.879Z,7.10
2022-11-30T08:10:37.601Z,6.90
2022-11-30T08:13:04.320Z,6.70
2022-11-30T08:15:33.373Z,6.80
2022-11-30T08:18:05.632Z,6.70
2022-11-30T08:20:32.345Z,6.60
2022-11-30T08:22:59.472Z,6.30
2022-11-30T08:25:26.736Z,5.90
2022-11-30T08:27:53.466Z,5.80
2022-11-30T08:30:20.287Z,5.60
2022-11-30T08:32:47.032Z,5.60
2022-11-30T08:35:14.323Z,5.90
2022-11-30T08:37:41.375Z,5.90
2022-11-30T08:40:08.699Z,6.10
2022-11-30T08:42:35.552Z,6.20
2022-11-30T08:45:02.680Z,6.70
2022-11-30T08:47:30.996Z,7.00
2022-11-30T08:49:58.370Z,7.00
2022-11-30T08:52:25.343Z,6.70
2022-11-30T08:54:52.483Z,6.30
2022-11-30T08:57:21.728Z,6.50
2022-11-30T08:59:49.730Z,6.80
2022-11-30T09:02:18.750Z,6.90
2022-11-30T09:04:49.097Z,6.70
2022-11-30T09:07:16.361Z,6.60
2022-11-30T09:09:43.348Z,6.80
2022-11-30T09:12:10.139Z,6.90
2022-11-30T09:14:37.737Z,7.10
2022-11-30T09:17:04.536Z,7.10
2022-11-30T09:19:31.382Z,6.70
2022-11-30T09:21:58.141Z,6.30
2022-11-30T09:24:25.324Z,6.00
2022-11-30T09:26:56.437Z,5.90
2022-11-30T09:29:23.956Z,5.80
2022-11-30T09:31:50.733Z,5.70
2022-11-30T09:34:17.491Z,5.70
2022-11-30T09:36:44.591Z,5.80
2022-11-30T09:39:12.891Z,5.80
2022-11-30T09:42:04.108Z,5.90
2022-11-30T09:44:42.768Z,6.30
2022-11-30T09:47:21.651Z,6.30
2022-11-30T09:49:49.238Z,6.40
2022-11-30T09:52:26.610Z,6.30
2022-11-30T09:54:54.746Z,6.50
2022-11-30T09:57:37.782Z,6.80
2022-11-30T10:00:12.529Z,7.20
2022-11-30T10:02:39.859Z,7.30
2022-11-30T10:05:27.053Z,7.10
2022-11-30T10:08:19.001Z,7.20
2022-11-30T10:10:54.760Z,7.10
2022-11-30T10:13:52.452Z,6.90
2022-11-30T10:16:22.294Z,6.60
2022-11-30T10:19:05.725Z,6.70
2022-11-30T10:21:51.259Z,7.00
2022-11-30T10:24:26.873Z,7.10
2022-11-30T10:26:55.892Z,7.00
2022-11-30T10:29:43.108Z,7.10
2022-11-30T10:32:37.173Z,7.10
2022-11-30T10:35:18.447Z,7.20
2022-11-30T10:37:46.789Z,7.30
2022-11-30T10:40:38.141Z,7.20
2022-11-30T10:43:22.798Z,7.10
2022-11-30T10:45:50.385Z,7.10
2022-11-30T10:48:28.873Z,7.10
2022-11-30T10:50:55.828Z,7.10
2022-11-30T10:53:22.822Z,7.10
2022-11-30T10:55:58.896Z,7.30
2022-11-30T10:58:40.139Z,7.40
2022-11-30T11:01:09.837Z,7.50
2022-11-30T11:03:37.960Z,7.30
2022-11-30T11:06:24.588Z,7.30
2022-11-30T11:08:51.382Z,7.10
2022-11-30T11:11:35.609Z,7.10
2022-11-30T11:14:31.343Z,7.10
2022-11-30T11:17:03.093Z,7.20
2022-11-30T11:19:42.048Z,7.30
2022-11-30T11:22:20.454Z,7.30
2022-11-30T11:24:51.984Z,7.50
2022-11-30T11:27:41.292Z,7.60
2022-11-30T11:30:37.879Z,7.60
2022-11-30T11:33:13.397Z,7.40
2022-11-30T11:35:41.589Z,7.50
2022-11-30T11:38:31.092Z,7.50
2022-11-30T11:40:57.858Z,7.70
2022-11-30T11:43:27.549Z,7.50
2022-11-30T11:46:01.984Z,7.50
2022-11-30T11:49:00.277Z,7.50
2022-11-30T11:51:33.215Z,7.60
2022-11-30T11:54:22.761Z,7.60
2022-11-30T11:56:50.132Z,7.50
2022-11-30T11:59:32.686Z,7.50
2022-11-30T12:02:14.215Z,7.70
2022-11-30T12:04:57.767Z,7.70
2022-11-30T12:07:28.745Z,7.50
2022-11-30T12:10:43.524Z,7.50
2022-11-30T12:13:01.828Z,7.50
2022-11-30T12:15:41.698Z,7.60
2022-11-30T12:18:48.265Z,7.90
2022-11-30T12:21:36.296Z,7.80
2022-11-30T12:24:24.569Z,7.70
2022-11-30T12:27:07.915Z,7.70
2022-11-30T12:29:41.125Z,7.90
2022-11-30T12:32:23.738Z,7.90
2022-11-30T12:35:19.056Z,8.10
2022-11-30T12:37:54.847Z,8.00
2022-11-30T12:40:35.630Z,7.80
2022-11-30T12:43:17.368Z,7.70
2022-11-30T12:45:45.559Z,7.70
2022-11-30T12:48:15.041Z,7.70
2022-11-30T12:51:04.696Z,7.60
2022-11-30T12:53:52.826Z,7.60
2022-11-30T12:56:19.745Z,7.60
2022-11-30T12:59:08.178Z,7.70
2022-11-30T13:02:03.787Z,7.60
2022-11-30T13:04:58.410Z,7.80
2022-11-30T13:07:28.426Z,7.80
2022-11-30T13:10:32.637Z,7.70
2022-11-30T13:13:00.918Z,7.80
2022-11-30T13:15:31.369Z,8.00
2022-11-30T13:17:58.558Z,8.10
2022-11-30T13:20:37.972Z,8.10
2022-11-30T13:23:07.997Z,8.00
2022-11-30T13:28:42.393Z,8.10
2022-11-30T13:31:15.149Z,8.30
2022-11-30T13:33:55.285Z,8.40
2022-11-30T13:36:33.466Z,8.20
2022-11-30T13:39:15.627Z,8.10
2022-11-30T13:42:09.358Z,8.10
2022-11-30T13:44:38.804Z,8.20
2022-11-30T13:47:26.737Z,8.30
2022-11-30T13:50:08.544Z,8.50
2022-11-30T13:53:14.453Z,8.50
2022-11-30T13:55:58.030Z,8.40
2022-11-30T13:58:26.010Z,8.20
2022-11-30T14:01:23.715Z,8.20
2022-11-30T14:04:22.812Z,8.00
2022-11-30T14:06:55.425Z,8.00
2022-11-30T14:09:37.449Z,8.10
2022-11-30T14:12:36.945Z,8.10
2022-11-30T14:15:31.769Z,7.80
2022-11-30T14:17:59.730Z,8.00
2022-11-30T14:20:37.516Z,7.80
2022-11-30T14:23:34.235Z,8.10
2022-11-30T14:26:10.789Z,8.40
2022-11-30T14:28:45.670Z,8.60
2022-11-30T14:31:19.721Z,8.60
2022-11-30T14:34:06.748Z,8.50
2022-11-30T14:36:37.672Z,8.50
2022-11-30T14:39:05.733Z,8.60
2022-11-30T14:41:32.733Z,8.70
2022-11-30T14:44:11.902Z,8.70
2022-11-30T14:46:39.220Z,8.50
2022-11-30T14:49:06.017Z,8.50
2022-11-30T14:51:33.729Z,8.20
2022-11-30T14:54:11.672Z,8.30
2022-11-30T14:56:47.859Z,8.30
2022-11-30T14:59:23.676Z,8.40
2022-11-30T15:02:03.730Z,8.40
2022-11-30T15:04:31.454Z,8.20
2022-11-30T15:06:59.315Z,8.10
2022-11-30T15:09:31.740Z,8.30
2022-11-30T15:11:58.956Z,8.30
2022-11-30T15:14:25.812Z,8.50
2022-11-30T15:16:55.195Z,8.60
2022-11-30T15:19:27.358Z,8.30
2022-11-30T15:21:55.510Z,8.50
2022-11-30T15:24:22.787Z,8.40
2022-11-30T15:27:13.139Z,8.20
2022-11-30T15:29:43.895Z,8.20
2022-11-30T15:32:19.994Z,8.20
2022-11-30T15:34:57.389Z,8.00
2022-11-30T15:37:31.050Z,8.30
2022-11-30T15:40:00.836Z,8.20
2022-11-30T15:42:31.192Z,7.90
2022-11-30T15:45:33.076Z,7.70
2022-11-30T15:48:01.029Z,7.80
2022-11-30T15:50:30.764Z,7.80
2022-11-30T15:53:00.946Z,7.60
2022-11-30T15:55:44.048Z,7.80
2022-11-30T15:58:32.763Z,7.70
2022-11-30T16:01:07.142Z,7.50
2022-11-30T16:03:36.127Z,7.50
2022-11-30T16:06:07.080Z,7.60
2022-11-30T16:08:33.888Z,7.50
2022-11-30T16:11:04.748Z,7.40
2022-11-30T16:13:34.609Z,7.60
2022-11-30T16:16:01.506Z,7.60
2022-11-30T16:18:28.752Z,7.70
2022-11-30T16:21:00.760Z,7.60
2022-11-30T16:23:28.379Z,7.50
2022-11-30T16:25:55.531Z,7.50
2022-11-30T16:28:22.998Z,7.50
2022-11-30T16:30:50.590Z,7.10
2022-11-30T16:33:23.101Z,7.00
2022-11-30T16:35:53.894Z,7.00
2022-11-30T16:38:21.123Z,6.80
2022-11-30T16:40:48.049Z,6.70
2022-11-30T16:43:15.196Z,6.70
2022-11-30T16:45:44.289Z,6.70
2022-11-30T16:48:11.114Z,6.60
2022-11-30T16:50:38.056Z,6.50
2022-11-30T16:53:05.920Z,6.50
2022-11-30T16:55:35.185Z,6.40
2022-11-30T16:58:02.089Z,6.40
2022-11-30T17:00:29.118Z,6.40
2022-11-30T17:02:59.399Z,6.40
2022-11-30T17:05:26.732Z,6.40
2022-11-30T17:07:54.109Z,6.40
2022-11-30T17:10:21.460Z,6.60
2022-11-30T17:12:48.270Z,6.80
2022-11-30T17:15:19.036Z,7.00
2022-11-30T17:17:46.167Z,7.40
2022-11-30T17:20:13.936Z,7.40
2022-11-30T17:22:41.416Z,7.20
2022-11-30T17:25:13.378Z,7.40
2022-11-30T17:27:40.133Z,7.50
2022-11-30T17:30:07.510Z,7.40
2022-11-30T17:32:34.614Z,7.20
2022-11-30T17:35:01.320Z,7.40
2022-11-30T17:37:28.056Z,7.20
2022-11-30T17:39:55.099Z,7.20
2022-11-30T17:42:22.502Z,7.00
2022-11-30T17:44:49.616Z,7.20
2022-11-30T17:47:16.592Z,7.50
2022-11-30T17:49:43.368Z,7.80
2022-11-30T17:52:10.123Z,7.90
2022-11-30T17:54:36.895Z,7.80
2022-11-30T17:57:04.521Z,7.40
2022-11-30T17:59:31.316Z,7.50
2022-11-30T18:01:58.160Z,7.40
2022-11-30T18:04:24.998Z,7.10
2022-11-30T18:06:52.124Z,7.20
2022-11-30T18:09:18.883Z,7.00
2022-11-30T18:11:46.410Z,6.90
2022-11-30T18:14:13.170Z,7.10
2022-11-30T18:16:39.981Z,7.30
2022-11-30T18:19:12.423Z,7.70
2022-11-30T18:21:41.419Z,7.70
2022-11-30T18:24:09.363Z,7.40
2022-11-30T18:26:36.189Z,7.20
2022-11-30T18:29:03.648Z,7.10
2022-11-30T18:31:31.375Z,7.20
2022-11-30T18:34:03.174Z,6.90
2022-11-30T18:36:30.315Z,7.20
2022-11-30T18:38:57.304Z,7.50
2022-11-30T18:41:26.232Z,7.60
2022-11-30T18:43:53.642Z,7.20
2022-11-30T18:46:21.422Z,7.40
2022-11-30T18:48:52.403Z,7.20
2022-11-30T18:51:22.678Z,7.10
2022-11-30T18:53:50.298Z,7.10
2022-11-30T18:56:20.765Z,7.00
2022-11-30T18:58:48.477Z,7.10
2022-11-30T19:01:20.305Z,7.30
2022-11-30T19:03:52.454Z,7.40
2022-11-30T19:06:19.807Z,7.60
2022-11-30T19:08:47.848Z,7.80
2022-11-30T19:11:18.114Z,7.50
2022-11-30T19:13:45.131Z,7.20
2022-11-30T19:16:15.513Z,6.90
2022-11-30T19:18:44.898Z,7.00
2022-11-30T19:21:14.368Z,6.60
2022-11-30T19:23:41.319Z,6.30
2022-11-30T19:26:09.948Z,6.50
2022-11-30T19:28:37.965Z,6.50
2022-11-30T19:31:13.820Z,6.70
2022-11-30T19:33:42.392Z,6.60
2022-11-30T19:36:13.235Z,6.60
2022-11-30T19:38:40.009Z,6.80
2022-11-30T19:41:12.067Z,6.50
2022-11-30T19:43:39.259Z,6.50
2022-11-30T19:46:07.007Z,7.00
2022-11-30T19:48:34.177Z,7.20
2022-11-30T19:51:05.869Z,7.00
2022-11-30T19:53:32.916Z,7.00
2022-11-30T19:56:03.369Z,7.00
2022-11-30T19:58:31.678Z,6.90
2022-11-30T20:00:58.431Z,7.00
2022-11-30T20:03:25.340Z,6.70
2022-11-30T20:05:52.475Z,6.60
2022-11-30T20:08:19.499Z,6.50
2022-11-30T20:10:46.441Z,6.40
2022-11-30T20:13:13.372Z,6.10
2022-11-30T20:15:41.087Z,6.20
2022-11-30T20:18:08.085Z,6.10
2022-11-30T20:20:35.346Z,6.00
2022-11-30T20:23:02.408Z,6.40
2022-11-30T20:25:31.083Z,6.60
2022-11-30T20:27:57.941Z,7.00
2022-11-30T20:30:24.956Z,7.10
2022-11-30T20:32:51.782Z,6.90
2022-11-30T20:35:18.703Z,6.90
2022-11-30T20:37:45.463Z,7.00
2022-11-30T20:40:12.578Z,6.90
2022-11-30T20:42:39.373Z,6.80
2022-11-30T20:45:06.644Z,6.80
2022-11-30T20:47:36.142Z,6.90
2022-11-30T20:50:06.753Z,7.10
2022-11-30T20:52:34.220Z,7.10
2022-11-30T20:55:00.961Z,7.00
2022-11-30T20:57:28.008Z,6.90
2022-11-30T20:59:54.793Z,7.00
2022-11-30T21:02:21.722Z,7.10
2022-11-30T21:04:48.787Z,6.90
2022-11-30T21:07:16.305Z,7.00
2022-11-30T21:09:43.343Z,6.90
2022-11-30T21:12:10.267Z,6.70
2022-11-30T21:14:37.047Z,6.90
2022-11-30T21:17:04.268Z,6.80
2022-11-30T21:19:31.081Z,6.70
2022-11-30T21:21:59.287Z,6.90
2022-11-30T21:24:26.120Z,6.60
2022-11-30T21:26:53.042Z,6.60
2022-11-30T21:29:19.861Z,6.80
2022-11-30T21:31:46.748Z,6.60
2022-11-30T21:34:14.090Z,6.40
2022-11-30T21:36:40.945Z,6.60
2022-11-30T21:39:08.177Z,6.50
2022-11-30T21:41:37.558Z,6.20
2022-11-30T21:44:06.315Z,6.50
2022-11-30T21:46:33.643Z,6.70
2022-11-30T21:49:00.688Z,6.80
2022-11-30T21:51:29.163Z,6.70
2022-11-30T21:53:59.619Z,6.70
2022-11-30T21:56:32.582Z,6.70
2022-11-30T21:59:00.052Z,6.70
2022-11-30T22:01:32.683Z,6.70
2022-11-30T22:04:00.694Z,6.80
2022-11-30T22:06:29.435Z,6.80
2022-11-30T22:08:57.746Z,6.90
2022-11-30T22:11:24.828Z,6.90
2022-11-30T22:13:53.268Z,6.90
2022-11-30T22:16:21.624Z,7.00
2022-11-30T22:18:48.670Z,7.00
2022-11-30T22:21:18.193Z,6.80
2022-11-30T22:23:47.196Z,6.70
2022-11-30T22:26:22.170Z,6.60
2022-11-30T22:29:04.289Z,6.60
2022-11-30T22:31:34.528Z,6.70
2022-11-30T22:34:01.598Z,6.70
2022-11-30T22:36:30.529Z,6.70
2022-11-30T22:39:02.634Z,6.60
2022-11-30T22:41:30.335Z,6.50
2022-11-30T22:43:57.817Z,6.70
2022-11-30T22:46:26.969Z,6.70
2022-11-30T22:48:54.058Z,6.60
2022-11-30T22:51:23.872Z,6.60
2022-11-30T22:53:51.890Z,6.70
2022-11-30T22:56:24.549Z,6.70
2022-11-30T22:58:55.861Z,6.60
2022-11-30T23:01:32.101Z,6.50
2022-11-30T23:04:08.445Z,6.40
2022-11-30T23:06:36.807Z,6.20
2022-11-30T23:09:05.936Z,6.30
2022-11-30T23:11:33.572Z,6.30
2022-11-30T23:14:00.460Z,6.40
2022-11-30T23:16:27.315Z,6.40
2022-11-30T23:18:57.491Z,6.50
2022-11-30T23:21:40.547Z,6.60
2022-11-30T23:24:12.024Z,6.50
2022-11-30T23:26:39.353Z,6.30
2022-11-30T23:29:10.295Z,6.30
2022-11-30T23:31:39.465Z,6.30
2022-11-30T23:34:08.805Z,6.20
2022-11-30T23:36:36.547Z,6.20
2022-11-30T23:39:06.613Z,6.30
2022-11-30T23:41:33.597Z,6.40
2022-11-30T23:44:00.542Z,6.40
2022-11-30T23:46:27.573Z,6.40
2022-11-30T23:48:55.700Z,6.40
2022-11-30T23:51:23.152Z,6.50
2022-11-30T23:53:49.960Z,6.40
2022-11-30T23:56:18.712Z,6.40
2022-11-30T23:58:45.770Z,6.40
